Portada
METAR-TAF:

METAR-TAF

Aeroports :

Monbetsu, Japó

latitud: 44-15N, longitud: 143-32E, altitud: 6 m

Observació

L'informe es va fer fa 1 hora i 14 minuts, a les 05:00 UTC
Vent 15 kt del Sud-Oest amb ràfegues de 25 kt
Temperatura 4°C
Humitat 56%
Pressió 996 hPa
Visibilitat 10 km o més
Escasses núvols a una alçada de 2000 ft
Núvols disperses a una alçada de 4000 ft

METAR: RJEB 140500Z 23015G25KT 9999 FEW020 SCT040 04/M04 Q0996

Hora: 15:14 (06:14 UTC)


TAF: manca

Observacions i pronòstics meteorològics de més de 4000 aeroports (METAR i TAF).

Les estacions disponibles són els punts grocs i vermells al mapa.

Posi el ratolí al punt desitjat per veure el nom de l'estació.

Feu clic per veure les observacions i els pronòstics meteorològics.

Per canviar el mapa: feu clic els botons verds amb una creu de color negre per apropar; al botó verd amb un guió per allunyar la imatge; o en les fletxes verdes per a mapes adjacents.


METAR-TAF: